Time;durP1;ratioP1;P1;durP2;ratioP2;P2;SDS_P1;SDS_P2;PMS_P1;PMS_P2;Temp;Humidity;BMP_temperature;BMP_pressure;BME280_temperature;BME280_humidity;BME280_pressure;Samples;Min_cycle;Max_cycle;Signal;HPM_P1;HPM_P2
2022/08/26 00:01:11;;;;;;;28.73;20.33;;;21.40;95.20;;;;;;4934924;29;20111;-67
2022/08/26 00:03:38;;;;;;;24.85;19.52;;;21.40;95.30;;;;;;4934755;29;20059;-67
2022/08/26 00:06:04;;;;;;;26.10;18.63;;;21.40;95.40;;;;;;4934875;29;20481;-68
2022/08/26 00:08:30;;;;;;;25.92;17.35;;;21.40;95.50;;;;;;4934935;29;20519;-61
2022/08/26 00:10:55;;;;;;;22.67;17.50;;;21.30;95.60;;;;;;4934828;29;20099;-61
2022/08/26 00:13:21;;;;;;;22.67;17.02;;;21.30;95.70;;;;;;4934164;29;20039;-62
2022/08/26 00:15:47;;;;;;;21.92;16.33;;;21.30;95.80;;;;;;4934390;29;20055;-61
2022/08/26 00:18:13;;;;;;;27.10;17.50;;;21.20;95.80;;;;;;4934813;29;20027;-61
2022/08/26 00:20:39;;;;;;;21.52;15.85;;;21.20;95.90;;;;;;4934066;29;20012;-61
2022/08/26 00:23:05;;;;;;;21.17;15.35;;;21.20;96.10;;;;;;4934889;29;20098;-61
2022/08/26 00:25:31;;;;;;;22.90;15.57;;;21.20;96.00;;;;;;4934516;29;20030;-61
2022/08/26 00:27:56;;;;;;;22.98;14.60;;;21.10;96.20;;;;;;4934081;29;20381;-61
2022/08/26 00:30:25;;;;;;;20.15;15.65;;;21.20;96.30;;;;;;4933296;29;20071;-61
2022/08/26 00:32:51;;;;;;;19.65;14.02;;;21.10;96.30;;;;;;4934070;29;20036;-61
2022/08/26 00:35:17;;;;;;;18.63;13.38;;;21.10;96.40;;;;;;4933732;29;20139;-61
2022/08/26 00:37:43;;;;;;;19.17;12.20;;;21.10;96.40;;;;;;4933679;29;20055;-61
2022/08/26 00:40:13;;;;;;;16.42;12.45;;;21.10;96.50;;;;;;4933342;29;20028;-62
2022/08/26 00:42:39;;;;;;;21.00;12.13;;;21.10;96.50;;;;;;4933687;29;20180;-60
2022/08/26 00:45:06;;;;;;;17.27;11.80;;;21.10;96.50;;;;;;4934776;29;20054;-61
2022/08/26 00:47:36;;;;;;;15.98;10.77;;;21.10;96.50;;;;;;4933809;29;20055;-60
2022/08/26 00:50:06;;;;;;;16.10;11.98;;;21.10;96.60;;;;;;4934644;29;20028;-60
2022/08/26 00:52:33;;;;;;;16.85;11.10;;;21.10;96.50;;;;;;4934148;29;20055;-63
2022/08/26 00:55:22;;;;;;;16.13;10.52;;;21.10;96.50;;;;;;4933773;29;20066;-61
2022/08/26 00:57:50;;;;;;;16.40;11.18;;;21.10;96.50;;;;;;4932851;29;20047;-62
2022/08/26 01:00:21;;;;;;;13.32;9.35;;;21.00;96.50;;;;;;4934343;29;20019;-62
2022/08/26 01:02:47;;;;;;;;;;;21.00;96.40;;;;;;4933953;29;20031;-64
2022/08/26 01:05:14;;;;;;;16.83;9.68;;;21.10;96.60;;;;;;4934444;29;19914;-62
2022/08/26 01:07:39;;;;;;;16.50;9.82;;;21.00;96.50;;;;;;4934132;29;20020;-61
2022/08/26 01:10:16;;;;;;;16.17;9.80;;;21.00;96.50;;;;;;4932379;29;20032;-64
2022/08/26 01:12:48;;;;;;;16.13;9.45;;;21.00;96.60;;;;;;4936307;29;20097;-62
2022/08/26 01:15:21;;;;;;;15.27;9.98;;;21.00;96.60;;;;;;4953199;28;20121;-62
2022/08/26 01:17:48;;;;;;;15.05;10.30;;;21.00;96.70;;;;;;4953039;28;20042;-62
2022/08/26 01:20:51;;;;;;;12.93;9.77;;;21.00;96.70;;;;;;4952405;29;20385;-63
2022/08/26 01:23:17;;;;;;;18.38;9.18;;;20.90;96.70;;;;;;4952914;29;20114;-67
2022/08/26 01:25:51;;;;;;;17.67;9.40;;;20.90;96.70;;;;;;4967935;28;20055;-67
2022/08/26 01:28:22;;;;;;;13.30;9.18;;;21.00;96.70;;;;;;4953285;29;20023;-63
2022/08/26 01:30:51;;;;;;;15.40;9.65;;;20.90;96.70;;;;;;4952546;28;20503;-65
2022/08/26 01:33:20;;;;;;;14.18;9.25;;;21.00;96.70;;;;;;4953184;28;20464;-67
2022/08/26 01:35:47;;;;;;;13.68;9.27;;;21.00;96.70;;;;;;4950712;28;20054;-67
2022/08/26 01:38:13;;;;;;;15.07;8.82;;;20.90;96.70;;;;;;4952586;28;20035;-64
2022/08/26 01:40:42;;;;;;;14.18;9.52;;;21.00;96.80;;;;;;4953042;28;20179;-64
2022/08/26 01:43:13;;;;;;;13.07;10.00;;;21.00;96.70;;;;;;4953180;28;20024;-60
2022/08/26 01:45:40;;;;;;;15.00;9.95;;;21.00;96.70;;;;;;4952376;28;20497;-65
2022/08/26 01:48:10;;;;;;;15.30;9.98;;;21.00;96.70;;;;;;4954569;28;20019;-67
2022/08/26 01:50:37;;;;;;;14.50;10.25;;;21.00;96.80;;;;;;4956561;28;20051;-66
2022/08/26 01:53:06;;;;;;;16.35;9.85;;;21.00;96.70;;;;;;4955950;28;20547;-66
2022/08/26 01:55:33;;;;;;;16.25;10.57;;;21.00;96.70;;;;;;4956387;28;20035;-65
2022/08/26 01:58:03;;;;;;;16.00;10.25;;;21.00;96.90;;;;;;4941906;28;20052;-65
2022/08/26 02:00:29;;;;;;;12.35;8.57;;;20.90;96.90;;;;;;4922077;29;20758;-66
2022/08/26 02:05:56;;;;;;;13.93;8.93;;;20.80;96.90;;;;;;4936992;29;20047;-65
2022/08/26 02:08:38;;;;;;;13.75;9.25;;;20.80;97.00;;;;;;4950445;28;20469;-67
2022/08/26 02:11:05;;;;;;;13.63;9.20;;;20.80;96.90;;;;;;4916813;29;20136;-67
2022/08/26 02:13:33;;;;;;;15.77;9.25;;;20.80;96.90;;;;;;4926069;29;20031;-67
2022/08/26 02:16:02;;;;;;;11.57;8.35;;;20.80;97.00;;;;;;4933800;29;20027;-62
2022/08/26 02:18:31;;;;;;;10.48;8.48;;;20.70;96.90;;;;;;4936523;29;20043;-66
2022/08/26 02:20:58;;;;;;;12.40;8.73;;;20.70;97.00;;;;;;4932196;29;20031;-66
2022/08/26 02:23:23;;;;;;;18.58;8.48;;;20.70;97.00;;;;;;4951872;29;20038;-62
2022/08/26 02:26:07;;;;;;;12.73;8.27;;;20.60;97.00;;;;;;4936918;29;20023;-63
2022/08/26 02:28:44;;;;;;;14.02;8.10;;;20.60;97.00;;;;;;4922848;29;20115;-64
2022/08/26 02:31:10;;;;;;;13.18;8.20;;;20.60;97.00;;;;;;4922175;29;20024;-64
2022/08/26 02:33:35;;;;;;;11.57;8.05;;;20.60;97.10;;;;;;4930991;29;20036;-64
2022/08/26 02:36:01;;;;;;;11.40;8.30;;;20.50;97.10;;;;;;4935052;29;20046;-62
2022/08/26 02:38:28;;;;;;;15.38;8.57;;;20.50;97.10;;;;;;4924663;29;20039;-61
2022/08/26 02:40:53;;;;;;;16.48;8.85;;;20.50;97.20;;;;;;4935172;29;20027;-63
2022/08/26 02:43:19;;;;;;;14.23;7.97;;;20.50;97.30;;;;;;4936406;29;20028;-63
2022/08/26 02:45:44;;;;;;;13.40;8.00;;;20.50;97.40;;;;;;4935883;29;20039;-64
2022/08/26 02:48:14;;;;;;;12.32;7.18;;;20.50;97.40;;;;;;4935181;29;20079;-63
2022/08/26 02:50:40;;;;;;;11.85;6.63;;;20.40;97.40;;;;;;4932875;29;20027;-60
2022/08/26 02:53:06;;;;;;;11.68;6.85;;;20.50;97.30;;;;;;4928506;29;20099;-65
2022/08/26 02:55:32;;;;;;;11.35;7.15;;;20.50;97.30;;;;;;4934550;29;20071;-62
2022/08/26 02:57:58;;;;;;;9.40;5.82;;;20.40;97.20;;;;;;4936606;29;20437;-63
2022/08/26 03:00:24;;;;;;;12.55;5.55;;;20.40;97.10;;;;;;4925079;29;20501;-65
2022/08/26 03:02:50;;;;;;;10.38;5.07;;;20.40;97.10;;;;;;4931279;29;20475;-65
2022/08/26 03:05:18;;;;;;;10.43;4.55;;;20.40;97.00;;;;;;4930436;29;20087;-66
2022/08/26 03:07:45;;;;;;;9.32;5.68;;;20.40;97.00;;;;;;4935019;29;20028;-65
2022/08/26 03:10:11;;;;;;;11.48;4.20;;;20.40;96.90;;;;;;4934132;29;20031;-66
2022/08/26 03:12:38;;;;;;;10.98;4.50;;;20.30;96.80;;;;;;4935748;29;20043;-66
2022/08/26 03:15:06;;;;;;;9.65;3.80;;;20.30;96.70;;;;;;4935716;29;20031;-66
2022/08/26 03:17:31;;;;;;;7.47;4.03;;;20.30;96.70;;;;;;4932559;29;20035;-66
2022/08/26 03:19:57;;;;;;;7.70;4.03;;;20.30;96.70;;;;;;4931880;29;20470;-64
2022/08/26 03:22:24;;;;;;;9.60;4.05;;;20.30;96.90;;;;;;4930189;29;20051;-62
2022/08/26 03:24:50;;;;;;;8.10;3.78;;;20.30;96.60;;;;;;4917325;29;20028;-66
2022/08/26 03:27:15;;;;;;;8.27;4.57;;;20.30;96.60;;;;;;4935820;29;20083;-64
2022/08/26 03:32:25;;;;;;;4.97;3.42;;;20.30;96.80;;;;;;4929819;29;20054;-65
2022/08/26 03:34:51;;;;;;;8.70;4.00;;;20.40;96.40;;;;;;4934441;29;20048;-64
2022/08/26 03:37:17;;;;;;;6.07;3.42;;;20.40;96.40;;;;;;4933879;29;20050;-65
2022/08/26 03:39:43;;;;;;;9.52;3.83;;;20.40;96.30;;;;;;4933060;29;20465;-66
2022/08/26 03:42:08;;;;;;;7.70;3.90;;;20.50;96.30;;;;;;4934869;29;20024;-64
2022/08/26 03:44:35;;;;;;;10.57;3.70;;;20.50;96.20;;;;;;4933735;29;20036;-61
2022/08/26 03:47:01;;;;;;;8.82;3.58;;;20.50;96.50;;;;;;4926844;29;20023;-65
2022/08/26 03:49:27;;;;;;;6.75;3.25;;;20.40;96.30;;;;;;4926282;29;20067;-62
2022/08/26 03:51:52;;;;;;;10.35;3.97;;;20.40;96.20;;;;;;4933078;29;20036;-65
2022/08/26 03:54:18;;;;;;;7.53;3.08;;;20.40;96.20;;;;;;4935334;29;20044;-60
2022/08/26 03:56:44;;;;;;;7.47;3.50;;;20.40;96.30;;;;;;4923827;29;20112;-66
2022/08/26 03:59:10;;;;;;;6.80;3.30;;;20.30;96.50;;;;;;4935080;29;20054;-60
2022/08/26 04:01:35;;;;;;;7.68;3.42;;;20.30;96.30;;;;;;4934986;29;20031;-59
2022/08/26 04:04:01;;;;;;;7.28;3.85;;;20.30;96.40;;;;;;4935264;29;20409;-62
2022/08/26 04:06:33;;;;;;;6.63;2.97;;;20.20;96.40;;;;;;4934325;29;20027;-59
2022/08/26 04:09:04;;;;;;;9.15;3.50;;;20.20;96.50;;;;;;4933872;29;20066;-59
2022/08/26 04:11:31;;;;;;;5.90;3.00;;;20.20;96.50;;;;;;4932317;29;20039;-59
2022/08/26 04:13:58;;;;;;;7.75;3.03;;;20.20;96.50;;;;;;4934962;29;20020;-59
2022/08/26 04:16:26;;;;;;;5.93;3.15;;;20.20;96.50;;;;;;4933220;29;20038;-60
2022/08/26 04:18:51;;;;;;;6.32;2.95;;;20.20;96.60;;;;;;4926503;29;20028;-67
2022/08/26 04:21:17;;;;;;;6.45;3.05;;;20.20;96.50;;;;;;4934581;29;20039;-66
2022/08/26 04:23:43;;;;;;;6.53;2.75;;;20.20;96.50;;;;;;4934999;29;20149;-61
2022/08/26 04:26:09;;;;;;;6.78;2.50;;;20.10;96.60;;;;;;4934466;29;20083;-60
2022/08/26 04:28:34;;;;;;;7.55;2.90;;;20.10;96.50;;;;;;4934751;29;20433;-59
2022/08/26 04:31:02;;;;;;;7.78;2.88;;;20.20;96.60;;;;;;4934710;29;20119;-59
2022/08/26 04:33:28;;;;;;;6.07;2.60;;;20.10;96.50;;;;;;4933332;29;20118;-60
2022/08/26 04:36:01;;;;;;;5.82;2.63;;;20.20;96.50;;;;;;4934637;29;20513;-59
2022/08/26 04:38:28;;;;;;;6.10;2.58;;;20.20;96.50;;;;;;4934373;29;20027;-60
2022/08/26 04:40:53;;;;;;;5.90;2.20;;;20.20;96.40;;;;;;4934291;29;20458;-60
2022/08/26 04:43:19;;;;;;;6.18;2.58;;;20.20;96.40;;;;;;4934556;29;20027;-61
2022/08/26 04:45:44;;;;;;;6.30;2.13;;;20.20;96.20;;;;;;4933639;29;20086;-60
2022/08/26 04:48:10;;;;;;;3.75;1.80;;;20.30;96.20;;;;;;4933180;29;20059;-60
2022/08/26 04:50:36;;;;;;;5.40;1.90;;;20.30;96.10;;;;;;4925656;29;20142;-66
2022/08/26 04:53:03;;;;;;;4.85;2.10;;;20.30;96.00;;;;;;4929867;29;20397;-60
2022/08/26 04:55:29;;;;;;;6.35;2.40;;;20.30;96.00;;;;;;4932643;29;20059;-59
2022/08/26 04:57:56;;;;;;;4.63;2.00;;;20.40;96.00;;;;;;4930426;29;20397;-59
2022/08/26 05:00:21;;;;;;;3.88;1.80;;;20.40;96.00;;;;;;4934133;29;20024;-58
2022/08/26 05:02:47;;;;;;;5.40;2.20;;;20.40;95.90;;;;;;4918877;29;20043;-56
2022/08/26 05:05:13;;;;;;;4.75;2.17;;;20.40;95.90;;;;;;4932856;29;20028;-56
2022/08/26 05:07:39;;;;;;;5.93;1.80;;;20.40;95.80;;;;;;4931922;29;20028;-54
2022/08/26 05:10:06;;;;;;;5.55;1.70;;;20.50;95.80;;;;;;4929521;29;20023;-56
2022/08/26 05:12:32;;;;;;;7.43;2.00;;;20.40;95.70;;;;;;4918966;29;20497;-57
2022/08/26 05:14:58;;;;;;;3.20;1.60;;;20.50;95.70;;;;;;4916883;29;20028;-59
2022/08/26 05:17:26;;;;;;;4.78;1.88;;;20.50;95.70;;;;;;4930076;29;20042;-61
2022/08/26 05:19:52;;;;;;;3.75;1.55;;;20.50;95.90;;;;;;4932174;29;20024;-60
2022/08/26 05:22:18;;;;;;;4.10;1.70;;;20.50;95.60;;;;;;4932686;29;20031;-60
2022/08/26 05:24:45;;;;;;;4.10;1.70;;;20.50;95.60;;;;;;4936306;29;20430;-60
2022/08/26 05:27:12;;;;;;;6.70;1.83;;;20.50;95.60;;;;;;4927076;29;20028;-61
2022/08/26 05:29:38;;;;;;;4.85;2.55;;;20.60;95.60;;;;;;4916534;29;20064;-61
2022/08/26 05:32:05;;;;;;;5.75;1.58;;;20.50;95.50;;;;;;4934886;29;20051;-61
2022/08/26 05:34:31;;;;;;;5.35;1.80;;;20.60;95.60;;;;;;4937062;29;20072;-61
2022/08/26 05:36:57;;;;;;;5.93;1.80;;;20.60;95.50;;;;;;4935868;29;20035;-61
2022/08/26 05:39:23;;;;;;;6.45;1.80;;;20.60;95.40;;;;;;4937552;29;20023;-61
2022/08/26 05:41:49;;;;;;;4.80;2.15;;;20.70;95.40;;;;;;4937666;29;20024;-61
2022/08/26 05:44:17;;;;;;;3.08;1.17;;;20.70;95.30;;;;;;4937078;29;20035;-61
2022/08/26 05:46:43;;;;;;;3.53;1.60;;;20.70;95.30;;;;;;4952149;29;20024;-61
2022/08/26 05:49:10;;;;;;;6.97;1.70;;;20.70;95.30;;;;;;4937688;29;20473;-61
2022/08/26 05:51:37;;;;;;;4.82;1.77;;;20.70;95.20;;;;;;4951301;28;20062;-60
2022/08/26 05:54:05;;;;;;;4.70;1.60;;;20.70;95.10;;;;;;4952225;29;20020;-61
2022/08/26 05:56:31;;;;;;;3.50;1.30;;;20.80;95.20;;;;;;4937210;29;20051;-61
2022/08/26 05:58:57;;;;;;;4.82;1.45;;;20.80;95.10;;;;;;4936941;29;20066;-61
2022/08/26 06:01:24;;;;;;;5.65;1.67;;;20.80;95.10;;;;;;4935932;29;20067;-61
2022/08/26 06:03:53;;;;;;;5.05;1.38;;;20.80;95.00;;;;;;4937428;29;20067;-64
2022/08/26 06:06:25;;;;;;;5.07;1.35;;;20.80;95.00;;;;;;4951585;29;20438;-61
2022/08/26 06:08:52;;;;;;;3.28;1.30;;;20.90;95.00;;;;;;4937332;29;20043;-61
2022/08/26 06:11:20;;;;;;;3.05;1.40;;;20.90;95.00;;;;;;4936553;29;20023;-62
2022/08/26 06:13:46;;;;;;;3.25;1.35;;;20.90;94.90;;;;;;4937010;29;20035;-63
2022/08/26 06:16:14;;;;;;;4.80;1.45;;;20.90;94.80;;;;;;4951982;29;20048;-63
2022/08/26 06:18:43;;;;;;;5.88;1.83;;;21.00;94.70;;;;;;4951119;29;20035;-61
2022/08/26 06:21:17;;;;;;;4.10;1.25;;;21.00;94.60;;;;;;4937129;29;20477;-61
2022/08/26 06:26:30;;;;;;;5.82;2.28;;;21.10;94.40;;;;;;4936510;29;20063;-61
2022/08/26 06:28:56;;;;;;;5.65;1.35;;;21.20;94.20;;;;;;4937070;29;20099;-62
2022/08/26 06:31:23;;;;;;;3.60;1.25;;;21.30;94.10;;;;;;4934337;29;20071;-61
2022/08/26 06:33:49;;;;;;;3.67;1.52;;;21.30;93.80;;;;;;4936427;29;20165;-64
2022/08/26 06:36:20;;;;;;;5.47;1.60;;;21.30;93.70;;;;;;4936112;29;20089;-70
2022/08/26 06:38:47;;;;;;;3.33;1.40;;;21.40;93.40;;;;;;4936025;29;20028;-66
2022/08/26 06:41:14;;;;;;;3.13;1.00;;;21.30;93.30;;;;;;4951175;29;20044;-62
2022/08/26 06:43:39;;;;;;;5.60;1.52;;;21.40;93.20;;;;;;4936662;29;20031;-63
2022/08/26 06:46:08;;;;;;;3.55;1.45;;;21.40;92.90;;;;;;4934556;29;20019;-66
2022/08/26 06:48:34;;;;;;;3.75;1.30;;;21.50;92.80;;;;;;4936401;29;20064;-63
2022/08/26 06:51:18;;;;;;;4.47;1.92;;;21.50;92.60;;;;;;4936484;29;20477;-62
2022/08/26 06:53:46;;;;;;;6.97;1.55;;;21.60;92.40;;;;;;4950446;29;20043;-65
2022/08/26 06:56:14;;;;;;;5.75;1.35;;;21.60;92.30;;;;;;4936444;29;20031;-65
2022/08/26 06:58:41;;;;;;;4.68;1.55;;;21.60;92.20;;;;;;4935423;29;20032;-61
2022/08/26 07:01:25;;;;;;;7.78;1.27;;;21.70;92.20;;;;;;4936428;29;20469;-61
2022/08/26 07:03:52;;;;;;;2.72;1.27;;;21.80;91.80;;;;;;4951056;29;20377;-61
2022/08/26 07:06:18;;;;;;;2.90;0.95;;;21.80;91.80;;;;;;4935745;29;20015;-62
2022/08/26 07:09:00;;;;;;;4.82;1.25;;;21.90;92.00;;;;;;4936046;29;20473;-61
2022/08/26 07:11:25;;;;;;;5.20;1.60;;;22.00;91.60;;;;;;4936212;29;20043;-61
2022/08/26 07:13:51;;;;;;;5.45;1.30;;;22.00;91.50;;;;;;4935347;29;20032;-61
2022/08/26 07:16:17;;;;;;;5.53;1.40;;;22.00;91.30;;;;;;4936255;29;20026;-61
2022/08/26 07:18:43;;;;;;;4.47;1.17;;;22.00;91.20;;;;;;4934627;29;20023;-61
2022/08/26 07:21:12;;;;;;;8.32;1.98;;;22.00;91.30;;;;;;4935449;29;20145;-61
2022/08/26 07:23:38;;;;;;;3.42;1.42;;;22.00;90.90;;;;;;4935858;29;20032;-61
2022/08/26 07:26:09;;;;;;;5.85;1.63;;;22.00;90.90;;;;;;4935966;29;20110;-61
2022/08/26 07:28:36;;;;;;;4.80;1.33;;;22.00;90.90;;;;;;4935134;29;20027;-61
2022/08/26 07:31:09;;;;;;;3.40;1.20;;;22.10;90.90;;;;;;4935879;29;20066;-61
2022/08/26 07:33:37;;;;;;;7.00;1.42;;;22.10;90.70;;;;;;4935156;29;20047;-61
2022/08/26 07:36:03;;;;;;;5.22;1.27;;;22.10;90.30;;;;;;4935253;29;20036;-61
2022/08/26 07:38:29;;;;;;;5.15;1.75;;;22.10;90.20;;;;;;4950155;29;20024;-61
2022/08/26 07:40:54;;;;;;;3.20;0.98;;;22.10;90.30;;;;;;4934871;29;20038;-61
2022/08/26 07:43:20;;;;;;;3.15;1.42;;;22.10;90.20;;;;;;4935520;29;20027;-62
2022/08/26 07:45:46;;;;;;;3.58;1.08;;;22.10;90.20;;;;;;4935102;29;20393;-62
2022/08/26 07:48:11;;;;;;;3.30;1.50;;;22.10;90.10;;;;;;4934920;29;20024;-61
2022/08/26 07:50:38;;;;;;;2.95;1.20;;;22.20;90.00;;;;;;4935166;29;20163;-61
2022/08/26 07:53:04;;;;;;;2.70;1.10;;;22.30;88.90;;;;;;4933775;29;20095;-61
2022/08/26 07:55:30;;;;;;;2.88;1.00;;;22.30;88.40;;;;;;4934331;29;20386;-60
2022/08/26 07:57:56;;;;;;;5.63;1.30;;;22.40;88.20;;;;;;4935148;29;20106;-61
2022/08/26 08:00:22;;;;;;;3.00;0.82;;;22.40;87.60;;;;;;4935419;29;20058;-61
2022/08/26 08:02:48;;;;;;;4.15;1.05;;;22.50;87.60;;;;;;4934421;29;20038;-61
2022/08/26 08:05:16;;;;;;;3.67;1.00;;;22.60;87.60;;;;;;4935163;29;20028;-61
2022/08/26 08:07:43;;;;;;;2.83;1.02;;;22.60;86.90;;;;;;4934973;29;20034;-60
2022/08/26 08:10:12;;;;;;;3.75;1.15;;;22.70;86.80;;;;;;4934647;29;20102;-61
2022/08/26 08:12:39;;;;;;;2.25;1.05;;;22.70;86.20;;;;;;4949247;29;20099;-62
2022/08/26 08:15:06;;;;;;;4.85;1.10;;;22.80;86.30;;;;;;4933803;29;20384;-61
2022/08/26 08:17:33;;;;;;;4.07;1.40;;;22.80;86.10;;;;;;4934186;29;20039;-62
2022/08/26 08:20:00;;;;;;;3.05;1.05;;;22.90;85.80;;;;;;4934873;29;20497;-61
2022/08/26 08:22:26;;;;;;;3.25;1.20;;;22.90;85.50;;;;;;4935014;29;20499;-61
2022/08/26 08:24:52;;;;;;;6.18;1.52;;;22.90;85.70;;;;;;4934285;29;20023;-62
2022/08/26 08:27:18;;;;;;;6.38;1.45;;;22.90;85.40;;;;;;4933643;29;20042;-62
2022/08/26 08:29:45;;;;;;;4.25;1.10;;;22.90;85.70;;;;;;4934408;29;20043;-61
2022/08/26 08:32:12;;;;;;;3.20;1.17;;;23.00;86.20;;;;;;4934204;29;20044;-61
2022/08/26 08:34:38;;;;;;;4.15;1.25;;;23.20;84.80;;;;;;4934229;29;20051;-62
2022/08/26 08:37:05;;;;;;;4.38;0.93;;;23.40;84.40;;;;;;4933749;29;20077;-61
2022/08/26 08:39:31;;;;;;;4.00;1.35;;;23.60;82.60;;;;;;4934795;29;20024;-61
2022/08/26 08:42:18;;;;;;;4.57;1.33;;;23.70;81.90;;;;;;4934662;29;20031;-61
2022/08/26 08:44:47;;;;;;;3.10;1.20;;;23.80;82.00;;;;;;4933768;29;20032;-62
2022/08/26 08:47:34;;;;;;;3.13;1.33;;;24.00;81.20;;;;;;4934390;29;20051;-63
2022/08/26 08:50:19;;;;;;;3.33;0.88;;;24.20;80.40;;;;;;4934678;29;20035;-61
2022/08/26 08:53:01;;;;;;;3.30;1.20;;;24.40;78.90;;;;;;4933714;29;20380;-62
2022/08/26 08:55:39;;;;;;;3.67;1.10;;;24.50;78.80;;;;;;4934494;29;20082;-61
2022/08/26 08:58:12;;;;;;;3.58;1.08;;;24.60;77.90;;;;;;4933494;29;20027;-61
2022/08/26 09:01:00;;;;;;;3.72;1.25;;;24.50;77.20;;;;;;4934087;29;20027;-63
2022/08/26 09:03:34;;;;;;;2.35;0.98;;;24.40;76.90;;;;;;4934353;29;20078;-62
2022/08/26 09:06:02;;;;;;;4.05;1.10;;;24.30;77.20;;;;;;4933704;29;20334;-61
2022/08/26 09:08:34;;;;;;;4.40;1.30;;;24.30;77.40;;;;;;4934374;29;20393;-61
2022/08/26 09:11:01;;;;;;;2.22;0.80;;;24.20;77.50;;;;;;4934486;29;20161;-62
2022/08/26 09:13:27;;;;;;;5.45;1.50;;;24.30;77.50;;;;;;4933539;29;20054;-62
2022/08/26 09:16:09;;;;;;;7.63;1.40;;;24.30;77.40;;;;;;4934234;29;20020;-61
2022/08/26 09:18:58;;;;;;;4.90;1.20;;;24.20;77.30;;;;;;4934149;29;20032;-62
2022/08/26 09:21:25;;;;;;;3.47;1.00;;;24.20;77.60;;;;;;4933403;29;20035;-61
2022/08/26 09:23:54;;;;;;;3.60;1.15;;;24.20;77.60;;;;;;4933823;29;20027;-61
2022/08/26 09:26:24;;;;;;;4.63;1.38;;;24.20;77.60;;;;;;4933494;29;20071;-62
2022/08/26 09:29:18;;;;;;;3.75;1.20;;;24.30;77.70;;;;;;4934132;29;20115;-62
2022/08/26 09:31:44;;;;;;;2.13;1.00;;;24.20;77.30;;;;;;4933763;29;20026;-62
2022/08/26 09:34:28;;;;;;;3.00;1.00;;;24.20;77.30;;;;;;4948078;29;20038;-61
2022/08/26 09:36:58;;;;;;;2.90;1.05;;;24.20;76.90;;;;;;4933990;29;20408;-62
2022/08/26 09:39:28;;;;;;;3.50;1.17;;;24.30;76.80;;;;;;4934220;29;20031;-61
2022/08/26 09:42:19;;;;;;;4.35;1.17;;;24.20;76.50;;;;;;4933435;29;20107;-61
2022/08/26 09:45:03;;;;;;;2.97;1.13;;;24.10;76.70;;;;;;4933947;29;20035;-62
2022/08/26 09:47:37;;;;;;;5.45;1.33;;;24.00;76.80;;;;;;4933204;29;20028;-61
2022/08/26 09:50:08;;;;;;;4.75;1.40;;;23.90;77.60;;;;;;4933959;29;20481;-61
2022/08/26 09:52:34;;;;;;;3.13;1.17;;;23.80;77.50;;;;;;4948384;29;20042;-64
2022/08/26 09:55:14;;;;;;;3.20;1.10;;;23.80;77.80;;;;;;4932014;29;20032;-61
2022/08/26 09:57:52;;;;;;;2.88;0.93;;;23.80;78.20;;;;;;4933793;29;20110;-62
2022/08/26 10:00:28;;;;;;;2.95;1.42;;;23.70;78.40;;;;;;4933900;29;20084;-61
2022/08/26 10:02:54;;;;;;;3.35;1.05;;;23.70;78.50;;;;;;4947881;29;20090;-62
2022/08/26 10:05:33;;;;;;;6.38;1.70;;;23.80;78.50;;;;;;4933883;29;20035;-64
2022/08/26 10:08:06;;;;;;;2.53;1.00;;;23.70;78.70;;;;;;4934015;29;20023;-66
2022/08/26 10:10:37;;;;;;;5.38;1.27;;;23.70;78.80;;;;;;4933401;29;20024;-62
2022/08/26 10:13:11;;;;;;;2.97;1.10;;;23.80;78.60;;;;;;4937328;29;20048;-62
2022/08/26 10:15:49;;;;;;;2.45;1.20;;;24.00;78.20;;;;;;4951193;29;20059;-65
2022/08/26 10:18:23;;;;;;;4.15;1.33;;;24.10;77.20;;;;;;4951950;29;20040;-68
2022/08/26 10:21:05;;;;;;;2.70;1.30;;;24.20;77.00;;;;;;4936916;29;20027;-66
2022/08/26 10:23:37;;;;;;;2.78;1.20;;;24.20;76.90;;;;;;4936153;29;20028;-64
2022/08/26 10:26:24;;;;;;;3.22;1.15;;;24.20;76.40;;;;;;4937169;29;20028;-63
2022/08/26 10:29:14;;;;;;;5.07;1.40;;;24.10;76.70;;;;;;4936669;29;20429;-64
2022/08/26 10:31:47;;;;;;;3.30;1.30;;;24.00;76.70;;;;;;4935964;29;20039;-64
2022/08/26 10:34:15;;;;;;;6.97;1.58;;;24.10;76.80;;;;;;4936556;29;20031;-65
2022/08/26 10:36:52;;;;;;;2.40;0.90;;;24.10;76.80;;;;;;4935934;29;20036;-67
2022/08/26 10:39:39;;;;;;;2.45;0.98;;;24.10;77.00;;;;;;4937034;29;20032;-70
2022/08/26 10:42:35;;;;;;;4.80;1.00;;;24.20;76.80;;;;;;4951439;29;20027;-62
2022/08/26 10:45:06;;;;;;;5.40;1.17;;;24.40;76.40;;;;;;4936665;29;20170;-61
2022/08/26 10:47:45;;;;;;;3.17;1.15;;;24.50;75.70;;;;;;4936294;29;20024;-61
2022/08/26 10:50:11;;;;;;;5.38;1.48;;;24.60;75.20;;;;;;4936591;29;20036;-62
2022/08/26 10:52:54;;;;;;;2.88;1.52;;;24.50;75.40;;;;;;4935348;29;20179;-62
2022/08/26 10:55:30;;;;;;;2.75;1.00;;;24.50;75.20;;;;;;4950941;29;20028;-61
2022/08/26 10:58:14;;;;;;;4.85;1.23;;;24.60;75.20;;;;;;4934833;29;20031;-62
2022/08/26 11:03:51;;;;;;;2.45;1.02;;;25.10;74.00;;;;;;4936417;29;20559;-64
2022/08/26 11:06:17;;;;;;;6.50;1.30;;;25.10;73.50;;;;;;4935729;29;20102;-62
2022/08/26 11:09:05;;;;;;;4.43;1.20;;;25.20;73.30;;;;;;4935915;29;20107;-61
2022/08/26 11:11:40;;;;;;;2.83;1.02;;;25.30;72.20;;;;;;4935619;29;20027;-64
2022/08/26 11:14:18;;;;;;;4.28;1.50;;;25.40;71.90;;;;;;4936208;29;20044;-62
2022/08/26 11:16:51;;;;;;;8.32;1.50;;;25.40;72.30;;;;;;4935761;29;20028;-64
2022/08/26 11:19:29;;;;;;;7.45;1.63;;;25.50;71.50;;;;;;4949964;29;20024;-64
2022/08/26 11:22:05;;;;;;;3.05;1.20;;;25.40;71.10;;;;;;4950088;28;20090;-62
2022/08/26 11:24:54;;;;;;;4.45;1.10;;;25.30;71.40;;;;;;4935723;29;20028;-68
2022/08/26 11:27:23;;;;;;;2.55;1.10;;;25.10;72.20;;;;;;4935800;29;20060;-67
2022/08/26 11:30:21;;;;;;;2.72;1.05;;;25.10;72.00;;;;;;4935464;29;20047;-65
2022/08/26 11:32:54;;;;;;;3.75;1.10;;;25.10;72.20;;;;;;4934524;29;20078;-67
2022/08/26 11:35:19;;;;;;;4.35;0.95;;;25.10;71.70;;;;;;4935422;29;20073;-72
2022/08/26 11:38:17;;;;;;;3.70;0.90;;;25.10;71.50;;;;;;4935352;29;20122;-73
2022/08/26 11:40:43;;;;;;;2.92;0.90;;;25.10;71.50;;;;;;4900717;29;20549;-66
2022/08/26 11:43:22;;;;;;;3.65;1.60;;;24.90;70.90;;;;;;4935027;29;20035;-63
2022/08/26 11:46:04;;;;;;;2.22;1.15;;;24.80;71.40;;;;;;4934316;29;20020;-68
2022/08/26 11:48:35;;;;;;;1.25;0.75;;;24.70;72.00;;;;;;4934598;29;20059;-63
2022/08/26 11:51:14;;;;;;;5.18;1.00;;;24.60;72.60;;;;;;4933886;29;20027;-66
2022/08/26 11:53:43;;;;;;;4.30;1.10;;;24.50;72.90;;;;;;4934909;29;20501;-63
2022/08/26 11:56:21;;;;;;;2.20;0.95;;;24.40;73.30;;;;;;4929370;29;20020;-60
2022/08/26 11:58:47;;;;;;;3.70;1.30;;;24.30;74.00;;;;;;4927478;29;20035;-69
2022/08/26 12:01:25;;;;;;;3.03;0.90;;;24.10;74.70;;;;;;4947922;29;20533;-65
2022/08/26 12:03:51;;;;;;;2.90;0.80;;;23.90;75.40;;;;;;4940017;29;20032;-68
2022/08/26 12:06:31;;;;;;;2.22;0.90;;;23.80;75.40;;;;;;4941441;29;20174;-62
2022/08/26 12:09:00;;;;;;;5.00;1.10;;;23.70;75.60;;;;;;4921730;29;20031;-67
2022/08/26 12:11:34;;;;;;;2.90;1.00;;;23.60;75.90;;;;;;4932807;29;20024;-62
2022/08/26 12:14:01;;;;;;;3.28;1.00;;;23.50;76.20;;;;;;4934139;29;20044;-66
2022/08/26 12:16:32;;;;;;;3.55;1.00;;;23.50;76.40;;;;;;4933694;29;20020;-59
2022/08/26 12:18:58;;;;;;;2.75;1.23;;;23.50;77.20;;;;;;4929601;29;20055;-59
2022/08/26 12:21:30;;;;;;;3.97;0.93;;;23.40;79.10;;;;;;4932006;29;20082;-63
2022/08/26 12:24:00;;;;;;;3.22;1.27;;;23.30;81.40;;;;;;4933486;29;20030;-60
2022/08/26 12:26:31;;;;;;;2.95;1.10;;;23.10;81.80;;;;;;4947306;29;20050;-60
2022/08/26 12:29:07;;;;;;;1.95;0.98;;;22.90;83.00;;;;;;4933802;29;20032;-60
2022/08/26 12:31:41;;;;;;;3.50;1.13;;;22.80;82.60;;;;;;4933077;29;20019;-60
2022/08/26 12:34:11;;;;;;;4.38;1.08;;;22.70;82.70;;;;;;4951761;28;20031;-60
2022/08/26 12:36:45;;;;;;;3.28;1.25;;;22.70;82.90;;;;;;4931023;29;20139;-61
2022/08/26 12:39:31;;;;;;;4.10;1.10;;;22.80;83.10;;;;;;4933565;29;20040;-60
2022/08/26 12:42:17;;;;;;;2.05;0.77;;;23.00;83.40;;;;;;4944737;28;20489;-59
2022/08/26 12:44:59;;;;;;;4.53;0.93;;;23.20;82.20;;;;;;4909935;29;20046;-64
2022/08/26 12:47:44;;;;;;;1.38;0.90;;;23.30;80.60;;;;;;4919349;29;20104;-60
2022/08/26 12:50:24;;;;;;;4.95;1.40;;;23.40;79.20;;;;;;4931642;29;20020;-60
2022/08/26 12:52:57;;;;;;;1.23;1.00;;;23.40;79.40;;;;;;4933126;29;20035;-60
2022/08/26 12:55:39;;;;;;;3.85;0.93;;;23.40;79.20;;;;;;4932738;29;20043;-60
2022/08/26 12:58:17;;;;;;;1.80;0.77;;;23.50;78.90;;;;;;4933019;29;20474;-59
2022/08/26 13:00:49;;;;;;;2.53;0.80;;;23.50;78.30;;;;;;4932976;29;20032;-62
2022/08/26 13:03:33;;;;;;;1.27;0.80;;;23.50;78.50;;;;;;4932562;29;20087;-60
2022/08/26 13:06:13;;;;;;;2.08;0.85;;;23.50;78.30;;;;;;4933023;29;20032;-60
2022/08/26 13:08:40;;;;;;;;;;;23.40;78.30;;;;;;4933135;29;20031;-59
2022/08/26 13:11:19;;;;;;;2.35;0.90;;;23.30;78.90;;;;;;4933598;29;19910;-60